Redwood City, CA (94064)

9:57 PM PST on December 07, 2016 (GMT -0800)
Redwood City Hills | | Change Station

Elev 170 ft 37.47 °N, 122.25 °W | Updated 37 seconds ago

Light Rain
Light Rain
48.6 °F
Feels Like 49 °F
N
0.0
Wind Variable Wind from SSE
Gusts 0.0 mph

Today
High -- | Low -- °F
--% Chance of Precip.
Yesterday
High -- | Low -- °F
Precip. -- in
Pressure 30.11 in
Visibility 2.0 miles
Clouds Overcast 2800 ft
Windchill 49 °F
Dew Point 42 °F
Humidity 77%
Rainfall 0.09 in
Snow Depth Not available.
7:10 AM 4:50 PM
First Quarter, 60% visible
METAR KSQL 080555Z AUTO 00000KT 2SM -RA OVC028 08/07 A3011 RMK AO2 P0004
Pressure 30.11 in
Visibility 2.0 miles
Clouds Overcast 2800 ft
Windchill 49 °F
Dew Point 42 °F
Humidity 77%
Rainfall 0.09 in
Snow Depth Not available.
7:10 AM 4:50 PM
First Quarter, 60% visible
METAR KSQL 080555Z AUTO 00000KT 2SM -RA OVC028 08/07 A3011 RMK AO2 P0004

10-Day Weather Forecast

Almanac

Astronomy

Dec. 07, 2016 Rise Set
Actual Time
Civil Twilight
Nautical Twilight
Astronomical Twilight
Moon
Length of Visible Light
Length of Day
Tomorrow will be .
, % of the Moon is Illuminated

Today's Extremes

State Highs State Lows

Community

WunderPhotos

Upload Photos

1,956,259 photos uploaded!

WunderBlog® & News

Nearby

Air Quality

  Air Quality AQ Index Pollutant
Not available.

Snow Depth

Station Depth Elevation

Earthquake Activity

City Distance Mag. Time & Date
Minimum magnitude displayed is 2.5.

Coastal Water Temperatures

Place Temperature

Stations

Nearby Weather Stations

Station Location Temp. Windchill Dew Point Humidity Wind Precip. Elev Updated Type
                   

Watches & Warnings

There are currently no watches in effect.